sensor_id;sensor_type;location;lat;lon;timestamp;P1;durP1;ratioP1;P2;durP2;ratioP2
25191;SDS011;13143;50.924;5.320;2023-09-12T00:00:47;22.33;;;11.63;;
25191;SDS011;13143;50.924;5.320;2023-09-12T00:03:13;17.30;;;12.18;;
25191;SDS011;13143;50.924;5.320;2023-09-12T00:05:39;17.88;;;11.88;;
25191;SDS011;13143;50.924;5.320;2023-09-12T00:08:06;16.45;;;12.07;;
25191;SDS011;13143;50.924;5.320;2023-09-12T00:10:31;26.33;;;12.95;;
25191;SDS011;13143;50.924;5.320;2023-09-12T00:12:57;16.70;;;11.50;;
25191;SDS011;13143;50.924;5.320;2023-09-12T00:15:27;14.88;;;11.50;;
25191;SDS011;13143;50.924;5.320;2023-09-12T00:17:53;16.80;;;11.82;;
25191;SDS011;13143;50.924;5.320;2023-09-12T00:20:18;18.25;;;13.30;;
25191;SDS011;13143;50.924;5.320;2023-09-12T00:22:44;19.20;;;12.95;;
25191;SDS011;13143;50.924;5.320;2023-09-12T00:25:10;21.05;;;12.95;;
25191;SDS011;13143;50.924;5.320;2023-09-12T00:27:36;18.77;;;12.73;;
25191;SDS011;13143;50.924;5.320;2023-09-12T00:30:02;21.25;;;12.20;;
25191;SDS011;13143;50.924;5.320;2023-09-12T00:32:28;17.83;;;12.55;;
25191;SDS011;13143;50.924;5.320;2023-09-12T00:34:53;20.92;;;12.93;;
25191;SDS011;13143;50.924;5.320;2023-09-12T00:37:19;20.45;;;13.73;;
25191;SDS011;13143;50.924;5.320;2023-09-12T00:39:45;19.88;;;13.57;;
25191;SDS011;13143;50.924;5.320;2023-09-12T00:42:12;17.05;;;13.50;;
25191;SDS011;13143;50.924;5.320;2023-09-12T00:44:38;20.65;;;12.77;;
25191;SDS011;13143;50.924;5.320;2023-09-12T00:47:03;16.95;;;12.20;;
25191;SDS011;13143;50.924;5.320;2023-09-12T00:49:30;19.40;;;12.95;;
25191;SDS011;13143;50.924;5.320;2023-09-12T00:51:56;15.93;;;12.50;;
25191;SDS011;13143;50.924;5.320;2023-09-12T00:54:23;20.15;;;12.93;;
25191;SDS011;13143;50.924;5.320;2023-09-12T00:56:49;19.13;;;12.98;;
25191;SDS011;13143;50.924;5.320;2023-09-12T00:59:15;20.75;;;13.48;;
25191;SDS011;13143;50.924;5.320;2023-09-12T01:01:42;18.33;;;12.73;;
25191;SDS011;13143;50.924;5.320;2023-09-12T01:04:09;19.58;;;12.23;;
25191;SDS011;13143;50.924;5.320;2023-09-12T01:06:35;18.63;;;11.73;;
25191;SDS011;13143;50.924;5.320;2023-09-12T01:09:02;19.17;;;12.70;;
25191;SDS011;13143;50.924;5.320;2023-09-12T01:11:28;19.50;;;12.10;;
25191;SDS011;13143;50.924;5.320;2023-09-12T01:13:54;17.60;;;12.05;;
25191;SDS011;13143;50.924;5.320;2023-09-12T01:16:20;20.98;;;12.90;;
25191;SDS011;13143;50.924;5.320;2023-09-12T01:18:45;20.30;;;12.43;;
25191;SDS011;13143;50.924;5.320;2023-09-12T01:27:21;19.05;;;14.32;;
25191;SDS011;13143;50.924;5.320;2023-09-12T01:29:53;18.52;;;13.50;;
25191;SDS011;13143;50.924;5.320;2023-09-12T01:32:25;22.58;;;14.52;;
25191;SDS011;13143;50.924;5.320;2023-09-12T01:34:51;21.50;;;14.27;;
25191;SDS011;13143;50.924;5.320;2023-09-12T01:37:17;19.83;;;13.85;;
25191;SDS011;13143;50.924;5.320;2023-09-12T01:39:43;19.65;;;13.63;;
25191;SDS011;13143;50.924;5.320;2023-09-12T01:42:13;21.60;;;14.50;;
25191;SDS011;13143;50.924;5.320;2023-09-12T01:44:41;19.15;;;14.35;;
25191;SDS011;13143;50.924;5.320;2023-09-12T01:47:09;22.60;;;15.77;;
25191;SDS011;13143;50.924;5.320;2023-09-12T01:49:36;21.38;;;16.23;;
25191;SDS011;13143;50.924;5.320;2023-09-12T01:52:04;25.05;;;16.02;;
25191;SDS011;13143;50.924;5.320;2023-09-12T01:54:31;22.73;;;15.20;;
25191;SDS011;13143;50.924;5.320;2023-09-12T01:56:59;27.50;;;15.13;;
25191;SDS011;13143;50.924;5.320;2023-09-12T01:59:28;26.20;;;15.68;;
25191;SDS011;13143;50.924;5.320;2023-09-12T02:01:54;21.08;;;15.20;;
25191;SDS011;13143;50.924;5.320;2023-09-12T02:04:20;23.63;;;16.15;;
25191;SDS011;13143;50.924;5.320;2023-09-12T02:06:45;22.83;;;16.55;;
25191;SDS011;13143;50.924;5.320;2023-09-12T02:09:11;20.20;;;14.65;;
25191;SDS011;13143;50.924;5.320;2023-09-12T02:11:37;21.73;;;16.08;;
25191;SDS011;13143;50.924;5.320;2023-09-12T02:14:02;25.80;;;15.10;;
25191;SDS011;13143;50.924;5.320;2023-09-12T02:16:29;22.13;;;15.23;;
25191;SDS011;13143;50.924;5.320;2023-09-12T02:18:56;19.08;;;14.48;;
25191;SDS011;13143;50.924;5.320;2023-09-12T02:21:22;22.52;;;15.05;;
25191;SDS011;13143;50.924;5.320;2023-09-12T02:23:47;21.00;;;14.52;;
25191;SDS011;13143;50.924;5.320;2023-09-12T02:26:13;19.75;;;15.10;;
25191;SDS011;13143;50.924;5.320;2023-09-12T02:28:39;24.58;;;15.10;;
25191;SDS011;13143;50.924;5.320;2023-09-12T02:31:09;22.55;;;15.68;;
25191;SDS011;13143;50.924;5.320;2023-09-12T02:33:37;20.83;;;15.27;;
25191;SDS011;13143;50.924;5.320;2023-09-12T02:36:03;19.50;;;15.05;;
25191;SDS011;13143;50.924;5.320;2023-09-12T02:38:30;22.25;;;14.70;;
25191;SDS011;13143;50.924;5.320;2023-09-12T02:40:55;20.33;;;14.35;;
25191;SDS011;13143;50.924;5.320;2023-09-12T02:43:21;24.73;;;14.85;;
25191;SDS011;13143;50.924;5.320;2023-09-12T02:45:47;22.65;;;15.05;;
25191;SDS011;13143;50.924;5.320;2023-09-12T02:48:12;19.67;;;14.45;;
25191;SDS011;13143;50.924;5.320;2023-09-12T02:50:38;22.83;;;15.95;;
25191;SDS011;13143;50.924;5.320;2023-09-12T02:53:04;21.92;;;15.80;;
25191;SDS011;13143;50.924;5.320;2023-09-12T02:55:29;23.02;;;16.73;;
25191;SDS011;13143;50.924;5.320;2023-09-12T02:57:55;24.42;;;15.90;;
25191;SDS011;13143;50.924;5.320;2023-09-12T03:00:21;22.70;;;15.52;;
25191;SDS011;13143;50.924;5.320;2023-09-12T03:02:47;25.02;;;18.02;;
25191;SDS011;13143;50.924;5.320;2023-09-12T03:05:13;26.23;;;18.50;;
25191;SDS011;13143;50.924;5.320;2023-09-12T03:07:39;28.40;;;18.30;;
25191;SDS011;13143;50.924;5.320;2023-09-12T03:10:04;25.90;;;17.83;;
25191;SDS011;13143;50.924;5.320;2023-09-12T03:12:30;21.70;;;17.48;;
25191;SDS011;13143;50.924;5.320;2023-09-12T03:14:56;24.02;;;17.88;;
25191;SDS011;13143;50.924;5.320;2023-09-12T03:17:22;23.58;;;18.50;;
25191;SDS011;13143;50.924;5.320;2023-09-12T03:19:47;25.95;;;17.17;;
25191;SDS011;13143;50.924;5.320;2023-09-12T03:22:13;27.08;;;18.23;;
25191;SDS011;13143;50.924;5.320;2023-09-12T03:24:39;26.48;;;18.10;;
25191;SDS011;13143;50.924;5.320;2023-09-12T03:27:04;27.50;;;18.25;;
25191;SDS011;13143;50.924;5.320;2023-09-12T03:29:30;27.45;;;18.08;;
25191;SDS011;13143;50.924;5.320;2023-09-12T03:31:56;23.55;;;17.13;;
25191;SDS011;13143;50.924;5.320;2023-09-12T03:34:21;21.33;;;16.77;;
25191;SDS011;13143;50.924;5.320;2023-09-12T03:36:47;26.25;;;17.50;;
25191;SDS011;13143;50.924;5.320;2023-09-12T03:39:13;23.35;;;16.67;;
25191;SDS011;13143;50.924;5.320;2023-09-12T03:41:39;24.02;;;15.93;;
25191;SDS011;13143;50.924;5.320;2023-09-12T03:44:05;18.95;;;15.73;;
25191;SDS011;13143;50.924;5.320;2023-09-12T03:46:31;24.40;;;16.50;;
25191;SDS011;13143;50.924;5.320;2023-09-12T03:48:57;21.63;;;17.10;;
25191;SDS011;13143;50.924;5.320;2023-09-12T03:51:23;26.10;;;17.73;;
25191;SDS011;13143;50.924;5.320;2023-09-12T03:53:48;27.75;;;17.40;;
25191;SDS011;13143;50.924;5.320;2023-09-12T03:56:15;20.73;;;16.10;;
25191;SDS011;13143;50.924;5.320;2023-09-12T03:58:41;21.80;;;17.20;;
25191;SDS011;13143;50.924;5.320;2023-09-12T04:01:07;25.77;;;16.95;;
25191;SDS011;13143;50.924;5.320;2023-09-12T04:03:32;24.38;;;17.33;;
25191;SDS011;13143;50.924;5.320;2023-09-12T04:05:58;25.42;;;16.65;;
25191;SDS011;13143;50.924;5.320;2023-09-12T04:08:24;31.27;;;18.23;;
25191;SDS011;13143;50.924;5.320;2023-09-12T04:10:49;21.88;;;17.52;;
25191;SDS011;13143;50.924;5.320;2023-09-12T04:13:15;25.75;;;17.65;;
25191;SDS011;13143;50.924;5.320;2023-09-12T04:15:41;25.67;;;18.95;;
25191;SDS011;13143;50.924;5.320;2023-09-12T04:18:06;24.67;;;18.92;;
25191;SDS011;13143;50.924;5.320;2023-09-12T04:20:32;23.17;;;17.38;;
25191;SDS011;13143;50.924;5.320;2023-09-12T04:23:01;25.65;;;17.08;;
25191;SDS011;13143;50.924;5.320;2023-09-12T04:25:28;27.67;;;19.05;;
25191;SDS011;13143;50.924;5.320;2023-09-12T04:27:54;24.65;;;19.35;;
25191;SDS011;13143;50.924;5.320;2023-09-12T04:30:20;23.83;;;18.42;;
25191;SDS011;13143;50.924;5.320;2023-09-12T04:32:45;24.85;;;19.42;;
25191;SDS011;13143;50.924;5.320;2023-09-12T04:35:11;29.73;;;19.60;;
25191;SDS011;13143;50.924;5.320;2023-09-12T04:37:37;24.92;;;19.13;;
25191;SDS011;13143;50.924;5.320;2023-09-12T04:40:03;29.15;;;19.85;;
25191;SDS011;13143;50.924;5.320;2023-09-12T04:42:31;27.15;;;20.08;;
25191;SDS011;13143;50.924;5.320;2023-09-12T04:44:56;28.73;;;20.02;;
25191;SDS011;13143;50.924;5.320;2023-09-12T04:47:22;31.35;;;21.38;;
25191;SDS011;13143;50.924;5.320;2023-09-12T04:49:48;24.42;;;20.17;;
25191;SDS011;13143;50.924;5.320;2023-09-12T04:52:14;28.13;;;20.27;;
25191;SDS011;13143;50.924;5.320;2023-09-12T04:54:40;29.67;;;21.83;;
25191;SDS011;13143;50.924;5.320;2023-09-12T04:57:05;31.83;;;20.38;;
25191;SDS011;13143;50.924;5.320;2023-09-12T04:59:32;29.50;;;20.38;;
25191;SDS011;13143;50.924;5.320;2023-09-12T05:01:57;28.50;;;20.80;;
25191;SDS011;13143;50.924;5.320;2023-09-12T05:04:23;35.33;;;23.00;;
25191;SDS011;13143;50.924;5.320;2023-09-12T05:06:49;36.65;;;23.45;;
25191;SDS011;13143;50.924;5.320;2023-09-12T05:09:14;37.35;;;23.48;;
25191;SDS011;13143;50.924;5.320;2023-09-12T05:11:40;31.33;;;23.05;;
25191;SDS011;13143;50.924;5.320;2023-09-12T05:14:06;33.75;;;21.58;;
25191;SDS011;13143;50.924;5.320;2023-09-12T05:16:31;33.60;;;23.00;;
25191;SDS011;13143;50.924;5.320;2023-09-12T05:18:57;32.50;;;21.33;;
25191;SDS011;13143;50.924;5.320;2023-09-12T05:21:23;29.67;;;21.25;;
25191;SDS011;13143;50.924;5.320;2023-09-12T05:23:48;35.25;;;21.77;;
25191;SDS011;13143;50.924;5.320;2023-09-12T05:26:14;30.63;;;20.70;;
25191;SDS011;13143;50.924;5.320;2023-09-12T05:28:41;43.42;;;22.38;;
25191;SDS011;13143;50.924;5.320;2023-09-12T05:31:06;31.58;;;22.75;;
25191;SDS011;13143;50.924;5.320;2023-09-12T05:33:32;34.92;;;22.63;;
25191;SDS011;13143;50.924;5.320;2023-09-12T05:35:58;35.13;;;21.88;;
25191;SDS011;13143;50.924;5.320;2023-09-12T05:38:23;34.33;;;20.23;;
25191;SDS011;13143;50.924;5.320;2023-09-12T05:40:49;28.45;;;20.02;;
25191;SDS011;13143;50.924;5.320;2023-09-12T05:43:15;30.30;;;20.23;;
25191;SDS011;13143;50.924;5.320;2023-09-12T05:45:41;31.27;;;20.38;;
25191;SDS011;13143;50.924;5.320;2023-09-12T05:48:07;29.40;;;20.02;;
25191;SDS011;13143;50.924;5.320;2023-09-12T05:50:34;30.63;;;20.55;;
25191;SDS011;13143;50.924;5.320;2023-09-12T05:53:01;30.90;;;20.33;;
25191;SDS011;13143;50.924;5.320;2023-09-12T05:55:27;35.35;;;21.63;;
25191;SDS011;13143;50.924;5.320;2023-09-12T05:57:53;36.30;;;21.33;;
25191;SDS011;13143;50.924;5.320;2023-09-12T06:00:19;29.05;;;21.40;;
25191;SDS011;13143;50.924;5.320;2023-09-12T06:02:45;30.23;;;20.52;;
25191;SDS011;13143;50.924;5.320;2023-09-12T06:05:12;35.17;;;21.98;;
25191;SDS011;13143;50.924;5.320;2023-09-12T06:07:37;34.33;;;21.95;;
25191;SDS011;13143;50.924;5.320;2023-09-12T06:10:05;32.03;;;21.20;;
25191;SDS011;13143;50.924;5.320;2023-09-12T06:12:32;33.63;;;20.98;;
25191;SDS011;13143;50.924;5.320;2023-09-12T06:14:58;40.05;;;21.63;;
25191;SDS011;13143;50.924;5.320;2023-09-12T06:17:24;34.63;;;22.65;;
25191;SDS011;13143;50.924;5.320;2023-09-12T06:19:50;37.08;;;20.98;;
25191;SDS011;13143;50.924;5.320;2023-09-12T06:22:16;35.85;;;21.85;;
25191;SDS011;13143;50.924;5.320;2023-09-12T06:24:42;31.08;;;21.65;;
25191;SDS011;13143;50.924;5.320;2023-09-12T06:27:09;36.05;;;20.83;;
25191;SDS011;13143;50.924;5.320;2023-09-12T06:29:37;32.75;;;21.17;;
25191;SDS011;13143;50.924;5.320;2023-09-12T06:32:03;34.50;;;22.23;;
25191;SDS011;13143;50.924;5.320;2023-09-12T06:34:29;29.50;;;20.73;;
25191;SDS011;13143;50.924;5.320;2023-09-12T06:36:54;33.50;;;22.48;;
25191;SDS011;13143;50.924;5.320;2023-09-12T06:39:20;33.38;;;20.92;;
25191;SDS011;13143;50.924;5.320;2023-09-12T06:41:46;32.40;;;20.67;;
25191;SDS011;13143;50.924;5.320;2023-09-12T06:44:11;33.25;;;22.33;;
25191;SDS011;13143;50.924;5.320;2023-09-12T06:46:37;32.78;;;23.10;;
25191;SDS011;13143;50.924;5.320;2023-09-12T06:49:03;35.30;;;23.40;;
25191;SDS011;13143;50.924;5.320;2023-09-12T06:51:29;43.78;;;23.75;;
25191;SDS011;13143;50.924;5.320;2023-09-12T06:53:55;36.35;;;24.58;;
25191;SDS011;13143;50.924;5.320;2023-09-12T06:56:20;35.30;;;24.15;;
25191;SDS011;13143;50.924;5.320;2023-09-12T06:58:49;37.67;;;25.33;;
25191;SDS011;13143;50.924;5.320;2023-09-12T07:01:15;36.28;;;23.83;;
25191;SDS011;13143;50.924;5.320;2023-09-12T07:03:40;35.92;;;24.27;;
25191;SDS011;13143;50.924;5.320;2023-09-12T07:06:06;36.90;;;25.35;;
25191;SDS011;13143;50.924;5.320;2023-09-12T07:08:33;37.75;;;25.75;;
25191;SDS011;13143;50.924;5.320;2023-09-12T07:10:59;40.28;;;24.23;;
25191;SDS011;13143;50.924;5.320;2023-09-12T07:13:30;38.25;;;22.85;;
25191;SDS011;13143;50.924;5.320;2023-09-12T07:15:57;32.28;;;23.55;;
25191;SDS011;13143;50.924;5.320;2023-09-12T07:18:23;41.60;;;24.90;;
25191;SDS011;13143;50.924;5.320;2023-09-12T07:20:59;40.05;;;25.70;;
25191;SDS011;13143;50.924;5.320;2023-09-12T07:23:25;40.38;;;23.67;;
25191;SDS011;13143;50.924;5.320;2023-09-12T07:25:51;40.20;;;25.27;;
25191;SDS011;13143;50.924;5.320;2023-09-12T07:28:18;35.45;;;24.05;;
25191;SDS011;13143;50.924;5.320;2023-09-12T07:30:47;41.05;;;25.77;;
25191;SDS011;13143;50.924;5.320;2023-09-12T07:33:13;40.60;;;26.05;;
25191;SDS011;13143;50.924;5.320;2023-09-12T07:35:39;41.10;;;26.77;;
25191;SDS011;13143;50.924;5.320;2023-09-12T07:38:05;38.25;;;25.73;;
25191;SDS011;13143;50.924;5.320;2023-09-12T07:40:30;34.95;;;25.33;;
25191;SDS011;13143;50.924;5.320;2023-09-12T07:42:56;40.13;;;26.80;;
25191;SDS011;13143;50.924;5.320;2023-09-12T07:45:22;39.42;;;26.65;;
25191;SDS011;13143;50.924;5.320;2023-09-12T07:47:48;39.78;;;25.75;;
25191;SDS011;13143;50.924;5.320;2023-09-12T07:50:14;35.20;;;23.98;;
25191;SDS011;13143;50.924;5.320;2023-09-12T07:52:40;34.88;;;23.05;;
25191;SDS011;13143;50.924;5.320;2023-09-12T07:55:06;36.63;;;24.33;;
25191;SDS011;13143;50.924;5.320;2023-09-12T07:57:32;38.75;;;24.48;;
25191;SDS011;13143;50.924;5.320;2023-09-12T08:00:00;34.60;;;24.00;;
25191;SDS011;13143;50.924;5.320;2023-09-12T08:02:27;37.17;;;23.02;;
25191;SDS011;13143;50.924;5.320;2023-09-12T08:04:53;37.10;;;23.50;;
25191;SDS011;13143;50.924;5.320;2023-09-12T08:07:18;35.85;;;24.75;;
25191;SDS011;13143;50.924;5.320;2023-09-12T08:12:21;37.30;;;25.65;;
25191;SDS011;13143;50.924;5.320;2023-09-12T08:14:47;35.42;;;24.75;;
25191;SDS011;13143;50.924;5.320;2023-09-12T08:17:13;36.22;;;23.88;;
25191;SDS011;13143;50.924;5.320;2023-09-12T08:19:39;40.42;;;26.05;;
25191;SDS011;13143;50.924;5.320;2023-09-12T08:22:05;38.20;;;24.88;;
25191;SDS011;13143;50.924;5.320;2023-09-12T08:24:35;41.78;;;27.38;;
25191;SDS011;13143;50.924;5.320;2023-09-12T08:27:02;38.00;;;26.42;;
25191;SDS011;13143;50.924;5.320;2023-09-12T08:29:28;38.33;;;26.17;;
25191;SDS011;13143;50.924;5.320;2023-09-12T08:31:54;44.10;;;26.75;;
25191;SDS011;13143;50.924;5.320;2023-09-12T08:34:20;41.03;;;25.60;;
25191;SDS011;13143;50.924;5.320;2023-09-12T08:36:46;42.33;;;26.52;;
25191;SDS011;13143;50.924;5.320;2023-09-12T08:39:16;36.40;;;26.13;;
25191;SDS011;13143;50.924;5.320;2023-09-12T08:41:43;40.22;;;26.67;;
25191;SDS011;13143;50.924;5.320;2023-09-12T08:44:11;37.10;;;23.95;;
25191;SDS011;13143;50.924;5.320;2023-09-12T08:46:39;41.17;;;25.30;;
25191;SDS011;13143;50.924;5.320;2023-09-12T08:49:06;33.28;;;21.50;;
25191;SDS011;13143;50.924;5.320;2023-09-12T08:51:34;35.58;;;21.73;;
25191;SDS011;13143;50.924;5.320;2023-09-12T08:54:04;33.10;;;21.58;;
25191;SDS011;13143;50.924;5.320;2023-09-12T08:56:31;30.25;;;21.13;;
25191;SDS011;13143;50.924;5.320;2023-09-12T08:59:00;28.13;;;20.92;;
25191;SDS011;13143;50.924;5.320;2023-09-12T09:01:26;29.60;;;20.92;;
25191;SDS011;13143;50.924;5.320;2023-09-12T09:03:56;31.55;;;21.02;;
25191;SDS011;13143;50.924;5.320;2023-09-12T09:06:22;32.78;;;22.75;;
25191;SDS011;13143;50.924;5.320;2023-09-12T09:08:49;29.75;;;19.92;;
25191;SDS011;13143;50.924;5.320;2023-09-12T09:11:15;35.67;;;20.50;;
25191;SDS011;13143;50.924;5.320;2023-09-12T09:13:41;34.90;;;21.73;;
25191;SDS011;13143;50.924;5.320;2023-09-12T09:21:25;27.88;;;18.98;;
25191;SDS011;13143;50.924;5.320;2023-09-12T09:23:53;29.75;;;19.98;;
25191;SDS011;13143;50.924;5.320;2023-09-12T09:26:20;28.23;;;18.83;;
25191;SDS011;13143;50.924;5.320;2023-09-12T09:29:00;28.80;;;17.23;;
25191;SDS011;13143;50.924;5.320;2023-09-12T09:31:31;26.05;;;15.98;;
25191;SDS011;13143;50.924;5.320;2023-09-12T09:33:58;27.88;;;18.40;;
25191;SDS011;13143;50.924;5.320;2023-09-12T09:36:24;26.38;;;17.25;;
25191;SDS011;13143;50.924;5.320;2023-09-12T09:38:51;25.13;;;16.88;;
25191;SDS011;13143;50.924;5.320;2023-09-12T09:41:19;21.88;;;16.48;;
25191;SDS011;13143;50.924;5.320;2023-09-12T09:43:48;22.65;;;15.93;;
25191;SDS011;13143;50.924;5.320;2023-09-12T09:46:18;28.15;;;17.13;;
25191;SDS011;13143;50.924;5.320;2023-09-12T09:48:51;27.33;;;17.25;;
25191;SDS011;13143;50.924;5.320;2023-09-12T09:51:17;30.37;;;18.77;;
25191;SDS011;13143;50.924;5.320;2023-09-12T09:53:43;28.10;;;18.45;;
25191;SDS011;13143;50.924;5.320;2023-09-12T09:56:13;33.30;;;18.88;;
25191;SDS011;13143;50.924;5.320;2023-09-12T09:58:46;31.65;;;19.88;;
25191;SDS011;13143;50.924;5.320;2023-09-12T10:01:19;29.42;;;20.17;;
25191;SDS011;13143;50.924;5.320;2023-09-12T10:03:52;27.65;;;18.75;;
25191;SDS011;13143;50.924;5.320;2023-09-12T10:06:22;30.48;;;19.98;;
25191;SDS011;13143;50.924;5.320;2023-09-12T10:08:50;29.05;;;19.48;;
25191;SDS011;13143;50.924;5.320;2023-09-12T10:11:17;25.92;;;19.15;;
25191;SDS011;13143;50.924;5.320;2023-09-12T10:13:55;28.33;;;19.23;;
25191;SDS011;13143;50.924;5.320;2023-09-12T10:16:32;27.38;;;17.98;;
25191;SDS011;13143;50.924;5.320;2023-09-12T10:22:05;28.55;;;17.95;;
25191;SDS011;13143;50.924;5.320;2023-09-12T10:24:42;28.13;;;19.13;;
25191;SDS011;13143;50.924;5.320;2023-09-12T10:27:09;26.80;;;19.20;;
25191;SDS011;13143;50.924;5.320;2023-09-12T10:29:37;27.25;;;18.40;;
25191;SDS011;13143;50.924;5.320;2023-09-12T10:32:03;29.88;;;17.92;;
25191;SDS011;13143;50.924;5.320;2023-09-12T10:34:29;26.27;;;17.48;;
25191;SDS011;13143;50.924;5.320;2023-09-12T10:36:57;23.67;;;15.32;;
25191;SDS011;13143;50.924;5.320;2023-09-12T10:39:29;26.95;;;16.33;;
25191;SDS011;13143;50.924;5.320;2023-09-12T10:41:57;24.02;;;15.77;;
25191;SDS011;13143;50.924;5.320;2023-09-12T10:44:24;21.85;;;14.10;;
25191;SDS011;13143;50.924;5.320;2023-09-12T10:46:50;19.73;;;11.77;;
25191;SDS011;13143;50.924;5.320;2023-09-12T10:49:18;18.80;;;11.63;;
25191;SDS011;13143;50.924;5.320;2023-09-12T10:51:44;15.20;;;10.90;;
25191;SDS011;13143;50.924;5.320;2023-09-12T10:54:53;16.08;;;9.68;;
25191;SDS011;13143;50.924;5.320;2023-09-12T10:57:07;15.75;;;10.13;;
25191;SDS011;13143;50.924;5.320;2023-09-12T11:00:08;14.27;;;9.55;;
25191;SDS011;13143;50.924;5.320;2023-09-12T11:05:00;16.13;;;10.85;;
25191;SDS011;13143;50.924;5.320;2023-09-12T11:07:29;17.58;;;11.57;;
25191;SDS011;13143;50.924;5.320;2023-09-12T11:12:40;14.82;;;9.50;;
25191;SDS011;13143;50.924;5.320;2023-09-12T11:15:07;15.50;;;8.70;;
25191;SDS011;13143;50.924;5.320;2023-09-12T11:17:38;12.82;;;9.23;;
25191;SDS011;13143;50.924;5.320;2023-09-12T11:20:07;16.77;;;9.63;;
25191;SDS011;13143;50.924;5.320;2023-09-12T11:22:37;14.38;;;8.50;;
25191;SDS011;13143;50.924;5.320;2023-09-12T11:25:20;14.23;;;9.00;;
25191;SDS011;13143;50.924;5.320;2023-09-12T11:30:19;13.38;;;8.98;;
25191;SDS011;13143;50.924;5.320;2023-09-12T11:32:47;13.95;;;8.90;;
25191;SDS011;13143;50.924;5.320;2023-09-12T11:35:16;11.93;;;8.63;;
25191;SDS011;13143;50.924;5.320;2023-09-12T11:37:51;16.40;;;9.10;;
25191;SDS011;13143;50.924;5.320;2023-09-12T11:42:58;11.02;;;7.68;;
25191;SDS011;13143;50.924;5.320;2023-09-12T11:45:24;10.57;;;6.50;;
25191;SDS011;13143;50.924;5.320;2023-09-12T11:47:50;11.15;;;7.35;;
25191;SDS011;13143;50.924;5.320;2023-09-12T11:50:25;10.75;;;7.10;;
25191;SDS011;13143;50.924;5.320;2023-09-12T11:52:59;11.60;;;6.72;;
25191;SDS011;13143;50.924;5.320;2023-09-12T11:55:36;8.85;;;6.10;;
25191;SDS011;13143;50.924;5.320;2023-09-12T11:58:02;10.52;;;6.07;;
25191;SDS011;13143;50.924;5.320;2023-09-12T12:00:29;9.57;;;5.53;;
25191;SDS011;13143;50.924;5.320;2023-09-12T12:02:55;7.68;;;5.88;;
25191;SDS011;13143;50.924;5.320;2023-09-12T12:05:21;10.77;;;5.75;;
25191;SDS011;13143;50.924;5.320;2023-09-12T12:07:47;8.65;;;5.55;;
25191;SDS011;13143;50.924;5.320;2023-09-12T12:10:14;6.95;;;5.05;;
25191;SDS011;13143;50.924;5.320;2023-09-12T12:12:41;6.80;;;5.60;;
25191;SDS011;13143;50.924;5.320;2023-09-12T12:15:09;8.38;;;6.38;;
25191;SDS011;13143;50.924;5.320;2023-09-12T12:17:40;9.00;;;5.85;;
25191;SDS011;13143;50.924;5.320;2023-09-12T12:20:06;10.55;;;6.30;;
25191;SDS011;13143;50.924;5.320;2023-09-12T12:22:35;11.02;;;6.05;;
25191;SDS011;13143;50.924;5.320;2023-09-12T12:25:14;7.07;;;5.75;;
25191;SDS011;13143;50.924;5.320;2023-09-12T12:27:41;9.05;;;5.97;;
25191;SDS011;13143;50.924;5.320;2023-09-12T12:30:08;8.65;;;5.78;;
25191;SDS011;13143;50.924;5.320;2023-09-12T12:32:45;8.77;;;6.07;;
25191;SDS011;13143;50.924;5.320;2023-09-12T12:35:21;9.45;;;6.28;;
25191;SDS011;13143;50.924;5.320;2023-09-12T12:37:48;8.43;;;6.65;;
25191;SDS011;13143;50.924;5.320;2023-09-12T12:40:19;8.52;;;5.88;;
25191;SDS011;13143;50.924;5.320;2023-09-12T12:42:45;8.60;;;5.75;;
25191;SDS011;13143;50.924;5.320;2023-09-12T12:45:21;7.80;;;5.75;;
25191;SDS011;13143;50.924;5.320;2023-09-12T12:47:54;7.85;;;5.30;;
25191;SDS011;13143;50.924;5.320;2023-09-12T12:50:25;10.15;;;6.90;;
25191;SDS011;13143;50.924;5.320;2023-09-12T12:52:51;8.95;;;6.32;;
25191;SDS011;13143;50.924;5.320;2023-09-12T12:55:16;7.65;;;5.78;;
25191;SDS011;13143;50.924;5.320;2023-09-12T12:57:44;9.30;;;6.07;;
25191;SDS011;13143;50.924;5.320;2023-09-12T13:00:13;7.90;;;5.53;;
25191;SDS011;13143;50.924;5.320;2023-09-12T13:02:41;6.30;;;4.93;;
25191;SDS011;13143;50.924;5.320;2023-09-12T13:07:52;8.23;;;5.30;;
25191;SDS011;13143;50.924;5.320;2023-09-12T13:10:19;9.20;;;5.28;;
25191;SDS011;13143;50.924;5.320;2023-09-12T13:12:45;10.73;;;5.25;;
25191;SDS011;13143;50.924;5.320;2023-09-12T13:15:12;9.40;;;5.13;;
25191;SDS011;13143;50.924;5.320;2023-09-12T13:17:38;7.47;;;5.05;;
25191;SDS011;13143;50.924;5.320;2023-09-12T13:20:05;6.18;;;4.80;;
25191;SDS011;13143;50.924;5.320;2023-09-12T13:22:33;7.82;;;4.78;;
25191;SDS011;13143;50.924;5.320;2023-09-12T13:24:59;11.05;;;5.68;;
25191;SDS011;13143;50.924;5.320;2023-09-12T13:27:25;7.95;;;5.30;;
25191;SDS011;13143;50.924;5.320;2023-09-12T13:29:50;7.05;;;5.05;;
25191;SDS011;13143;50.924;5.320;2023-09-12T13:32:16;10.00;;;5.57;;
25191;SDS011;13143;50.924;5.320;2023-09-12T13:34:43;9.02;;;5.00;;
25191;SDS011;13143;50.924;5.320;2023-09-12T13:37:10;8.30;;;4.85;;
25191;SDS011;13143;50.924;5.320;2023-09-12T13:39:35;10.05;;;4.82;;
25191;SDS011;13143;50.924;5.320;2023-09-12T13:42:01;7.68;;;5.15;;
25191;SDS011;13143;50.924;5.320;2023-09-12T13:44:29;7.45;;;4.75;;
25191;SDS011;13143;50.924;5.320;2023-09-12T13:46:55;7.35;;;4.70;;
25191;SDS011;13143;50.924;5.320;2023-09-12T13:49:21;7.60;;;4.70;;
25191;SDS011;13143;50.924;5.320;2023-09-12T13:51:46;7.05;;;5.07;;
25191;SDS011;13143;50.924;5.320;2023-09-12T13:54:12;11.25;;;5.57;;
25191;SDS011;13143;50.924;5.320;2023-09-12T13:56:43;10.63;;;5.40;;
25191;SDS011;13143;50.924;5.320;2023-09-12T13:59:09;8.15;;;4.78;;
25191;SDS011;13143;50.924;5.320;2023-09-12T14:01:35;7.35;;;4.90;;
25191;SDS011;13143;50.924;5.320;2023-09-12T14:04:04;11.35;;;5.22;;
25191;SDS011;13143;50.924;5.320;2023-09-12T14:06:30;11.50;;;5.47;;
25191;SDS011;13143;50.924;5.320;2023-09-12T14:09:00;10.50;;;5.30;;
25191;SDS011;13143;50.924;5.320;2023-09-12T14:11:25;10.50;;;5.88;;
25191;SDS011;13143;50.924;5.320;2023-09-12T14:13:51;7.32;;;4.82;;
25191;SDS011;13143;50.924;5.320;2023-09-12T14:16:16;12.93;;;5.03;;
25191;SDS011;13143;50.924;5.320;2023-09-12T14:18:42;8.30;;;5.03;;
25191;SDS011;13143;50.924;5.320;2023-09-12T14:21:08;6.55;;;4.95;;
25191;SDS011;13143;50.924;5.320;2023-09-12T14:23:33;8.15;;;5.57;;
25191;SDS011;13143;50.924;5.320;2023-09-12T14:25:59;8.70;;;5.47;;
25191;SDS011;13143;50.924;5.320;2023-09-12T14:28:25;6.82;;;4.97;;
25191;SDS011;13143;50.924;5.320;2023-09-12T14:30:51;7.15;;;5.15;;
25191;SDS011;13143;50.924;5.320;2023-09-12T14:33:17;8.35;;;4.90;;
25191;SDS011;13143;50.924;5.320;2023-09-12T14:35:43;8.15;;;5.80;;
25191;SDS011;13143;50.924;5.320;2023-09-12T14:38:10;9.27;;;4.88;;
25191;SDS011;13143;50.924;5.320;2023-09-12T14:40:35;9.63;;;5.18;;
25191;SDS011;13143;50.924;5.320;2023-09-12T14:43:03;8.48;;;5.63;;
25191;SDS011;13143;50.924;5.320;2023-09-12T14:45:28;9.63;;;5.53;;
25191;SDS011;13143;50.924;5.320;2023-09-12T14:47:55;8.43;;;5.50;;
25191;SDS011;13143;50.924;5.320;2023-09-12T14:50:22;8.27;;;5.55;;
25191;SDS011;13143;50.924;5.320;2023-09-12T14:52:49;8.77;;;5.30;;
25191;SDS011;13143;50.924;5.320;2023-09-12T14:55:15;7.60;;;5.30;;